sensor_id;sensor_type;location;lat;lon;timestamp;P1;durP1;ratioP1;P2;durP2;ratioP2
21979;SDS011;11154;48.558;9.234;2022-08-03T00:01:59;2.97;;;2.50;;
21979;SDS011;11154;48.558;9.234;2022-08-03T00:04:03;3.33;;;2.53;;
21979;SDS011;11154;48.558;9.234;2022-08-03T00:06:05;3.08;;;2.45;;
21979;SDS011;11154;48.558;9.234;2022-08-03T00:08:07;3.13;;;2.83;;
21979;SDS011;11154;48.558;9.234;2022-08-03T00:10:08;3.88;;;2.78;;
21979;SDS011;11154;48.558;9.234;2022-08-03T00:12:10;3.13;;;2.83;;
21979;SDS011;11154;48.558;9.234;2022-08-03T00:14:13;3.28;;;2.53;;
21979;SDS011;11154;48.558;9.234;2022-08-03T00:16:15;4.10;;;2.47;;
21979;SDS011;11154;48.558;9.234;2022-08-03T00:18:17;3.17;;;2.60;;
21979;SDS011;11154;48.558;9.234;2022-08-03T00:20:19;3.53;;;2.70;;
21979;SDS011;11154;48.558;9.234;2022-08-03T00:22:21;5.82;;;2.78;;
21979;SDS011;11154;48.558;9.234;2022-08-03T00:24:22;2.70;;;2.40;;
21979;SDS011;11154;48.558;9.234;2022-08-03T00:26:24;2.83;;;2.63;;
21979;SDS011;11154;48.558;9.234;2022-08-03T00:28:25;3.85;;;2.50;;
21979;SDS011;11154;48.558;9.234;2022-08-03T00:30:29;3.15;;;2.70;;
21979;SDS011;11154;48.558;9.234;2022-08-03T00:32:31;3.25;;;2.95;;
21979;SDS011;11154;48.558;9.234;2022-08-03T00:34:33;2.92;;;2.65;;
21979;SDS011;11154;48.558;9.234;2022-08-03T00:36:34;2.80;;;2.40;;
21979;SDS011;11154;48.558;9.234;2022-08-03T00:38:36;3.30;;;2.70;;
21979;SDS011;11154;48.558;9.234;2022-08-03T00:40:38;2.70;;;2.50;;
21979;SDS011;11154;48.558;9.234;2022-08-03T00:42:47;3.45;;;2.42;;
21979;SDS011;11154;48.558;9.234;2022-08-03T00:44:52;2.50;;;2.30;;
21979;SDS011;11154;48.558;9.234;2022-08-03T00:46:55;2.72;;;2.53;;
21979;SDS011;11154;48.558;9.234;2022-08-03T00:48:57;3.10;;;2.80;;
21979;SDS011;11154;48.558;9.234;2022-08-03T00:50:59;5.93;;;2.90;;
21979;SDS011;11154;48.558;9.234;2022-08-03T00:53:03;2.92;;;2.63;;
21979;SDS011;11154;48.558;9.234;2022-08-03T00:55:06;5.03;;;2.72;;
21979;SDS011;11154;48.558;9.234;2022-08-03T00:57:09;3.15;;;2.85;;
21979;SDS011;11154;48.558;9.234;2022-08-03T00:59:11;3.55;;;2.92;;
21979;SDS011;11154;48.558;9.234;2022-08-03T01:01:14;3.78;;;2.75;;
21979;SDS011;11154;48.558;9.234;2022-08-03T01:03:17;3.00;;;2.70;;
21979;SDS011;11154;48.558;9.234;2022-08-03T01:05:19;3.30;;;2.60;;
21979;SDS011;11154;48.558;9.234;2022-08-03T01:07:24;3.38;;;2.78;;
21979;SDS011;11154;48.558;9.234;2022-08-03T01:09:36;3.45;;;2.83;;
21979;SDS011;11154;48.558;9.234;2022-08-03T01:11:48;3.40;;;3.05;;
21979;SDS011;11154;48.558;9.234;2022-08-03T01:13:56;2.97;;;2.67;;
21979;SDS011;11154;48.558;9.234;2022-08-03T01:16:07;4.38;;;2.80;;
21979;SDS011;11154;48.558;9.234;2022-08-03T01:18:13;3.45;;;3.10;;
21979;SDS011;11154;48.558;9.234;2022-08-03T01:20:23;5.05;;;2.75;;
21979;SDS011;11154;48.558;9.234;2022-08-03T01:22:36;4.30;;;2.95;;
21979;SDS011;11154;48.558;9.234;2022-08-03T01:24:49;3.45;;;3.10;;
21979;SDS011;11154;48.558;9.234;2022-08-03T01:27:00;3.63;;;3.00;;
21979;SDS011;11154;48.558;9.234;2022-08-03T01:29:10;3.63;;;2.95;;
21979;SDS011;11154;48.558;9.234;2022-08-03T01:31:28;2.95;;;2.75;;
21979;SDS011;11154;48.558;9.234;2022-08-03T01:33:34;3.05;;;2.75;;
21979;SDS011;11154;48.558;9.234;2022-08-03T01:35:38;2.65;;;2.45;;
21979;SDS011;11154;48.558;9.234;2022-08-03T01:37:46;4.28;;;2.92;;
21979;SDS011;11154;48.558;9.234;2022-08-03T01:39:52;3.58;;;2.92;;
21979;SDS011;11154;48.558;9.234;2022-08-03T01:41:58;3.15;;;2.85;;
21979;SDS011;11154;48.558;9.234;2022-08-03T01:44:06;3.15;;;2.85;;
21979;SDS011;11154;48.558;9.234;2022-08-03T01:46:10;5.30;;;2.80;;
21979;SDS011;11154;48.558;9.234;2022-08-03T01:48:15;2.88;;;2.65;;
21979;SDS011;11154;48.558;9.234;2022-08-03T01:50:19;4.65;;;2.90;;
21979;SDS011;11154;48.558;9.234;2022-08-03T01:52:24;5.05;;;3.33;;
21979;SDS011;11154;48.558;9.234;2022-08-03T01:54:27;3.40;;;3.10;;
21979;SDS011;11154;48.558;9.234;2022-08-03T01:56:30;2.95;;;2.65;;
21979;SDS011;11154;48.558;9.234;2022-08-03T01:58:32;3.53;;;2.97;;
21979;SDS011;11154;48.558;9.234;2022-08-03T02:00:36;4.85;;;3.03;;
21979;SDS011;11154;48.558;9.234;2022-08-03T02:02:39;3.38;;;2.63;;
21979;SDS011;11154;48.558;9.234;2022-08-03T02:04:45;5.20;;;2.60;;
21979;SDS011;11154;48.558;9.234;2022-08-03T02:06:47;2.92;;;2.67;;
21979;SDS011;11154;48.558;9.234;2022-08-03T02:08:50;2.80;;;2.60;;
21979;SDS011;11154;48.558;9.234;2022-08-03T02:10:54;2.97;;;2.72;;
21979;SDS011;11154;48.558;9.234;2022-08-03T02:12:57;4.05;;;2.70;;
21979;SDS011;11154;48.558;9.234;2022-08-03T02:15:01;4.82;;;2.55;;
21979;SDS011;11154;48.558;9.234;2022-08-03T02:17:03;3.58;;;2.60;;
21979;SDS011;11154;48.558;9.234;2022-08-03T02:19:07;4.22;;;3.15;;
21979;SDS011;11154;48.558;9.234;2022-08-03T02:21:12;3.55;;;3.17;;
21979;SDS011;11154;48.558;9.234;2022-08-03T02:23:15;4.13;;;3.53;;
21979;SDS011;11154;48.558;9.234;2022-08-03T02:25:18;4.20;;;3.22;;
21979;SDS011;11154;48.558;9.234;2022-08-03T02:27:21;3.90;;;3.35;;
21979;SDS011;11154;48.558;9.234;2022-08-03T02:29:24;4.35;;;3.50;;
21979;SDS011;11154;48.558;9.234;2022-08-03T02:31:29;3.47;;;3.17;;
21979;SDS011;11154;48.558;9.234;2022-08-03T02:33:35;4.28;;;3.42;;
21979;SDS011;11154;48.558;9.234;2022-08-03T02:35:39;3.75;;;3.40;;
21979;SDS011;11154;48.558;9.234;2022-08-03T02:37:45;3.67;;;3.00;;
21979;SDS011;11154;48.558;9.234;2022-08-03T02:39:52;3.70;;;3.30;;
21979;SDS011;11154;48.558;9.234;2022-08-03T02:41:58;3.53;;;3.22;;
21979;SDS011;11154;48.558;9.234;2022-08-03T02:44:03;4.00;;;3.60;;
21979;SDS011;11154;48.558;9.234;2022-08-03T02:46:09;4.10;;;3.70;;
21979;SDS011;11154;48.558;9.234;2022-08-03T02:48:15;5.28;;;3.55;;
21979;SDS011;11154;48.558;9.234;2022-08-03T02:50:18;3.75;;;3.42;;
21979;SDS011;11154;48.558;9.234;2022-08-03T02:52:22;3.40;;;3.10;;
21979;SDS011;11154;48.558;9.234;2022-08-03T02:54:28;5.97;;;3.53;;
21979;SDS011;11154;48.558;9.234;2022-08-03T02:56:30;3.85;;;3.55;;
21979;SDS011;11154;48.558;9.234;2022-08-03T02:58:34;5.88;;;3.45;;
21979;SDS011;11154;48.558;9.234;2022-08-03T03:00:37;3.53;;;3.17;;
21979;SDS011;11154;48.558;9.234;2022-08-03T03:02:40;3.83;;;3.40;;
21979;SDS011;11154;48.558;9.234;2022-08-03T03:04:44;7.07;;;3.42;;
21979;SDS011;11154;48.558;9.234;2022-08-03T03:06:47;3.33;;;2.97;;
21979;SDS011;11154;48.558;9.234;2022-08-03T03:08:50;4.00;;;3.58;;
21979;SDS011;11154;48.558;9.234;2022-08-03T03:10:54;4.35;;;3.55;;
21979;SDS011;11154;48.558;9.234;2022-08-03T03:12:58;3.88;;;3.28;;
21979;SDS011;11154;48.558;9.234;2022-08-03T03:15:01;4.63;;;3.50;;
21979;SDS011;11154;48.558;9.234;2022-08-03T03:17:03;4.10;;;3.10;;
21979;SDS011;11154;48.558;9.234;2022-08-03T03:19:07;4.25;;;2.83;;
21979;SDS011;11154;48.558;9.234;2022-08-03T03:21:14;3.90;;;3.20;;
21979;SDS011;11154;48.558;9.234;2022-08-03T03:23:18;3.40;;;3.10;;
21979;SDS011;11154;48.558;9.234;2022-08-03T03:25:21;3.50;;;2.85;;
21979;SDS011;11154;48.558;9.234;2022-08-03T03:27:25;3.53;;;2.88;;
21979;SDS011;11154;48.558;9.234;2022-08-03T03:29:27;2.97;;;2.67;;
21979;SDS011;11154;48.558;9.234;2022-08-03T03:31:30;5.40;;;2.90;;
21979;SDS011;11154;48.558;9.234;2022-08-03T03:33:32;5.20;;;3.10;;
21979;SDS011;11154;48.558;9.234;2022-08-03T03:35:34;3.35;;;2.97;;
21979;SDS011;11154;48.558;9.234;2022-08-03T03:37:36;3.22;;;2.83;;
21979;SDS011;11154;48.558;9.234;2022-08-03T03:39:38;2.80;;;2.33;;
21979;SDS011;11154;48.558;9.234;2022-08-03T03:41:39;3.33;;;2.90;;
21979;SDS011;11154;48.558;9.234;2022-08-03T03:43:43;3.70;;;3.30;;
21979;SDS011;11154;48.558;9.234;2022-08-03T03:45:45;3.00;;;2.70;;
21979;SDS011;11154;48.558;9.234;2022-08-03T03:47:48;3.10;;;2.70;;
21979;SDS011;11154;48.558;9.234;2022-08-03T03:49:50;3.50;;;3.00;;
21979;SDS011;11154;48.558;9.234;2022-08-03T03:51:52;3.78;;;2.72;;
21979;SDS011;11154;48.558;9.234;2022-08-03T03:53:55;3.78;;;3.05;;
21979;SDS011;11154;48.558;9.234;2022-08-03T03:55:57;6.05;;;3.08;;
21979;SDS011;11154;48.558;9.234;2022-08-03T03:57:59;3.20;;;2.90;;
21979;SDS011;11154;48.558;9.234;2022-08-03T04:00:05;4.82;;;3.33;;
21979;SDS011;11154;48.558;9.234;2022-08-03T04:02:07;4.35;;;3.20;;
21979;SDS011;11154;48.558;9.234;2022-08-03T04:04:10;3.33;;;3.03;;
21979;SDS011;11154;48.558;9.234;2022-08-03T04:06:29;3.63;;;2.93;;
21979;SDS011;11154;48.558;9.234;2022-08-03T04:08:49;3.35;;;3.05;;
21979;SDS011;11154;48.558;9.234;2022-08-03T04:11:10;3.50;;;3.20;;
21979;SDS011;11154;48.558;9.234;2022-08-03T04:13:16;3.65;;;3.30;;
21979;SDS011;11154;48.558;9.234;2022-08-03T04:15:22;4.22;;;3.13;;
21979;SDS011;11154;48.558;9.234;2022-08-03T04:17:26;3.42;;;3.13;;
21979;SDS011;11154;48.558;9.234;2022-08-03T04:19:29;4.45;;;3.38;;
21979;SDS011;11154;48.558;9.234;2022-08-03T04:21:36;3.05;;;2.75;;
21979;SDS011;11154;48.558;9.234;2022-08-03T04:23:41;3.20;;;2.90;;
21979;SDS011;11154;48.558;9.234;2022-08-03T04:25:46;4.15;;;3.22;;
21979;SDS011;11154;48.558;9.234;2022-08-03T04:27:50;3.28;;;2.97;;
21979;SDS011;11154;48.558;9.234;2022-08-03T04:29:54;3.97;;;3.30;;
21979;SDS011;11154;48.558;9.234;2022-08-03T04:31:59;3.30;;;3.00;;
21979;SDS011;11154;48.558;9.234;2022-08-03T04:34:02;5.63;;;3.40;;
21979;SDS011;11154;48.558;9.234;2022-08-03T04:36:05;5.43;;;3.35;;
21979;SDS011;11154;48.558;9.234;2022-08-03T04:38:09;3.17;;;2.80;;
21979;SDS011;11154;48.558;9.234;2022-08-03T04:40:17;3.40;;;3.10;;
21979;SDS011;11154;48.558;9.234;2022-08-03T04:42:22;4.03;;;3.20;;
21979;SDS011;11154;48.558;9.234;2022-08-03T04:44:25;4.82;;;3.63;;
21979;SDS011;11154;48.558;9.234;2022-08-03T04:46:30;3.47;;;3.10;;
21979;SDS011;11154;48.558;9.234;2022-08-03T04:48:36;3.60;;;3.28;;
21979;SDS011;11154;48.558;9.234;2022-08-03T04:50:38;5.53;;;3.70;;
21979;SDS011;11154;48.558;9.234;2022-08-03T04:52:41;4.13;;;3.13;;
21979;SDS011;11154;48.558;9.234;2022-08-03T04:54:43;4.20;;;3.35;;
21979;SDS011;11154;48.558;9.234;2022-08-03T04:56:47;3.72;;;3.40;;
21979;SDS011;11154;48.558;9.234;2022-08-03T04:58:49;3.72;;;3.40;;
21979;SDS011;11154;48.558;9.234;2022-08-03T05:00:50;3.40;;;2.97;;
21979;SDS011;11154;48.558;9.234;2022-08-03T05:02:52;4.90;;;3.40;;
21979;SDS011;11154;48.558;9.234;2022-08-03T05:04:55;4.22;;;3.70;;
21979;SDS011;11154;48.558;9.234;2022-08-03T05:06:57;3.92;;;3.63;;
21979;SDS011;11154;48.558;9.234;2022-08-03T05:08:59;4.07;;;3.20;;
21979;SDS011;11154;48.558;9.234;2022-08-03T05:11:01;4.05;;;3.65;;
21979;SDS011;11154;48.558;9.234;2022-08-03T05:13:02;3.97;;;3.60;;
21979;SDS011;11154;48.558;9.234;2022-08-03T05:15:05;4.32;;;3.92;;
21979;SDS011;11154;48.558;9.234;2022-08-03T05:17:07;4.28;;;3.75;;
21979;SDS011;11154;48.558;9.234;2022-08-03T05:19:09;4.00;;;3.70;;
21979;SDS011;11154;48.558;9.234;2022-08-03T05:21:12;4.43;;;3.88;;
21979;SDS011;11154;48.558;9.234;2022-08-03T05:23:15;4.70;;;3.28;;
21979;SDS011;11154;48.558;9.234;2022-08-03T05:25:17;4.28;;;3.60;;
21979;SDS011;11154;48.558;9.234;2022-08-03T05:27:19;4.35;;;3.88;;
21979;SDS011;11154;48.558;9.234;2022-08-03T05:29:21;4.03;;;3.63;;
21979;SDS011;11154;48.558;9.234;2022-08-03T05:31:22;4.00;;;3.60;;
21979;SDS011;11154;48.558;9.234;2022-08-03T05:33:24;4.65;;;3.70;;
21979;SDS011;11154;48.558;9.234;2022-08-03T05:35:26;4.88;;;3.65;;
21979;SDS011;11154;48.558;9.234;2022-08-03T05:37:29;5.78;;;3.90;;
21979;SDS011;11154;48.558;9.234;2022-08-03T05:39:31;4.22;;;3.88;;
21979;SDS011;11154;48.558;9.234;2022-08-03T05:41:33;5.43;;;4.05;;
21979;SDS011;11154;48.558;9.234;2022-08-03T05:43:34;4.60;;;4.10;;
21979;SDS011;11154;48.558;9.234;2022-08-03T05:45:36;4.93;;;4.43;;
21979;SDS011;11154;48.558;9.234;2022-08-03T05:47:38;7.55;;;4.20;;
21979;SDS011;11154;48.558;9.234;2022-08-03T05:49:40;5.03;;;4.53;;
21979;SDS011;11154;48.558;9.234;2022-08-03T05:51:41;4.63;;;4.22;;
21979;SDS011;11154;48.558;9.234;2022-08-03T05:53:44;5.00;;;4.32;;
21979;SDS011;11154;48.558;9.234;2022-08-03T05:55:46;8.10;;;4.40;;
21979;SDS011;11154;48.558;9.234;2022-08-03T05:57:48;5.93;;;4.60;;
21979;SDS011;11154;48.558;9.234;2022-08-03T05:59:50;4.63;;;4.15;;
21979;SDS011;11154;48.558;9.234;2022-08-03T06:01:51;7.45;;;4.80;;
21979;SDS011;11154;48.558;9.234;2022-08-03T06:03:53;5.95;;;4.30;;
21979;SDS011;11154;48.558;9.234;2022-08-03T06:05:54;5.13;;;4.40;;
21979;SDS011;11154;48.558;9.234;2022-08-03T06:07:56;4.80;;;4.40;;
21979;SDS011;11154;48.558;9.234;2022-08-03T06:09:59;4.63;;;4.20;;
21979;SDS011;11154;48.558;9.234;2022-08-03T06:12:02;4.43;;;3.95;;
21979;SDS011;11154;48.558;9.234;2022-08-03T06:14:04;4.60;;;4.20;;
21979;SDS011;11154;48.558;9.234;2022-08-03T06:16:06;6.00;;;4.32;;
21979;SDS011;11154;48.558;9.234;2022-08-03T06:18:08;5.50;;;4.55;;
21979;SDS011;11154;48.558;9.234;2022-08-03T06:20:10;4.43;;;4.03;;
21979;SDS011;11154;48.558;9.234;2022-08-03T06:22:12;5.05;;;4.32;;
21979;SDS011;11154;48.558;9.234;2022-08-03T06:24:14;4.50;;;4.10;;
21979;SDS011;11154;48.558;9.234;2022-08-03T06:26:17;5.07;;;4.47;;
21979;SDS011;11154;48.558;9.234;2022-08-03T06:28:19;6.07;;;3.65;;
21979;SDS011;11154;48.558;9.234;2022-08-03T06:30:20;4.40;;;4.00;;
21979;SDS011;11154;48.558;9.234;2022-08-03T06:32:22;4.03;;;3.63;;
21979;SDS011;11154;48.558;9.234;2022-08-03T06:34:24;5.68;;;4.15;;
21979;SDS011;11154;48.558;9.234;2022-08-03T06:36:25;6.93;;;3.63;;
21979;SDS011;11154;48.558;9.234;2022-08-03T06:38:30;5.10;;;3.97;;
21979;SDS011;11154;48.558;9.234;2022-08-03T06:40:34;4.88;;;3.70;;
21979;SDS011;11154;48.558;9.234;2022-08-03T06:42:40;5.38;;;3.80;;
21979;SDS011;11154;48.558;9.234;2022-08-03T06:44:43;4.32;;;3.92;;
21979;SDS011;11154;48.558;9.234;2022-08-03T06:46:44;5.47;;;3.65;;
21979;SDS011;11154;48.558;9.234;2022-08-03T06:48:46;4.35;;;3.95;;
21979;SDS011;11154;48.558;9.234;2022-08-03T06:50:48;4.53;;;4.10;;
21979;SDS011;11154;48.558;9.234;2022-08-03T06:52:50;4.57;;;4.18;;
21979;SDS011;11154;48.558;9.234;2022-08-03T06:54:52;5.82;;;3.60;;
21979;SDS011;11154;48.558;9.234;2022-08-03T06:56:53;4.32;;;3.92;;
21979;SDS011;11154;48.558;9.234;2022-08-03T06:58:56;4.45;;;4.05;;
21979;SDS011;11154;48.558;9.234;2022-08-03T07:00:58;4.03;;;3.63;;
21979;SDS011;11154;48.558;9.234;2022-08-03T07:03:00;4.18;;;3.75;;
21979;SDS011;11154;48.558;9.234;2022-08-03T07:05:01;4.22;;;3.83;;
21979;SDS011;11154;48.558;9.234;2022-08-03T07:07:04;3.97;;;3.67;;
21979;SDS011;11154;48.558;9.234;2022-08-03T07:09:05;3.78;;;3.45;;
21979;SDS011;11154;48.558;9.234;2022-08-03T07:11:07;4.60;;;3.75;;
21979;SDS011;11154;48.558;9.234;2022-08-03T07:13:09;3.97;;;3.58;;
21979;SDS011;11154;48.558;9.234;2022-08-03T07:15:12;4.13;;;3.72;;
21979;SDS011;11154;48.558;9.234;2022-08-03T07:17:14;4.50;;;3.50;;
21979;SDS011;11154;48.558;9.234;2022-08-03T07:19:16;3.88;;;3.33;;
21979;SDS011;11154;48.558;9.234;2022-08-03T07:21:17;4.20;;;3.58;;
21979;SDS011;11154;48.558;9.234;2022-08-03T07:23:19;5.40;;;3.17;;
21979;SDS011;11154;48.558;9.234;2022-08-03T07:25:21;3.63;;;3.03;;
21979;SDS011;11154;48.558;9.234;2022-08-03T07:27:23;3.60;;;3.03;;
21979;SDS011;11154;48.558;9.234;2022-08-03T07:29:27;3.47;;;3.17;;
21979;SDS011;11154;48.558;9.234;2022-08-03T07:31:30;6.93;;;3.30;;
21979;SDS011;11154;48.558;9.234;2022-08-03T07:33:32;3.20;;;2.90;;
21979;SDS011;11154;48.558;9.234;2022-08-03T07:35:34;4.05;;;3.47;;
21979;SDS011;11154;48.558;9.234;2022-08-03T07:37:36;3.60;;;3.30;;
21979;SDS011;11154;48.558;9.234;2022-08-03T07:39:37;3.40;;;3.00;;
21979;SDS011;11154;48.558;9.234;2022-08-03T07:41:39;3.13;;;2.80;;
21979;SDS011;11154;48.558;9.234;2022-08-03T07:43:41;3.30;;;3.00;;
21979;SDS011;11154;48.558;9.234;2022-08-03T07:45:42;4.20;;;2.50;;
21979;SDS011;11154;48.558;9.234;2022-08-03T07:47:46;3.17;;;2.90;;
21979;SDS011;11154;48.558;9.234;2022-08-03T07:49:48;3.65;;;2.50;;
21979;SDS011;11154;48.558;9.234;2022-08-03T07:51:49;3.20;;;2.20;;
21979;SDS011;11154;48.558;9.234;2022-08-03T07:54:05;2.15;;;1.90;;
21979;SDS011;11154;48.558;9.234;2022-08-03T07:56:09;3.28;;;2.97;;
21979;SDS011;11154;48.558;9.234;2022-08-03T07:58:11;3.75;;;2.42;;
21979;SDS011;11154;48.558;9.234;2022-08-03T08:00:15;2.35;;;2.10;;
21979;SDS011;11154;48.558;9.234;2022-08-03T08:02:19;4.20;;;1.98;;
21979;SDS011;11154;48.558;9.234;2022-08-03T08:04:22;4.47;;;2.38;;
21979;SDS011;11154;48.558;9.234;2022-08-03T08:06:24;2.50;;;2.20;;
21979;SDS011;11154;48.558;9.234;2022-08-03T08:08:26;2.70;;;2.13;;
21979;SDS011;11154;48.558;9.234;2022-08-03T08:10:27;2.13;;;1.85;;
21979;SDS011;11154;48.558;9.234;2022-08-03T08:12:29;3.58;;;2.00;;
21979;SDS011;11154;48.558;9.234;2022-08-03T08:14:31;2.30;;;2.10;;
21979;SDS011;11154;48.558;9.234;2022-08-03T08:16:33;2.53;;;2.33;;
21979;SDS011;11154;48.558;9.234;2022-08-03T08:18:35;2.40;;;1.98;;
21979;SDS011;11154;48.558;9.234;2022-08-03T08:20:38;2.30;;;2.08;;
21979;SDS011;11154;48.558;9.234;2022-08-03T08:22:39;6.07;;;2.20;;
21979;SDS011;11154;48.558;9.234;2022-08-03T08:24:41;2.95;;;2.05;;
21979;SDS011;11154;48.558;9.234;2022-08-03T08:26:43;2.75;;;2.10;;
21979;SDS011;11154;48.558;9.234;2022-08-03T08:28:45;2.13;;;1.92;;
21979;SDS011;11154;48.558;9.234;2022-08-03T08:30:47;3.97;;;2.15;;
21979;SDS011;11154;48.558;9.234;2022-08-03T08:32:49;3.05;;;2.00;;
21979;SDS011;11154;48.558;9.234;2022-08-03T08:34:51;2.63;;;2.00;;
21979;SDS011;11154;48.558;9.234;2022-08-03T08:36:54;1.95;;;1.48;;
21979;SDS011;11154;48.558;9.234;2022-08-03T08:38:56;1.70;;;1.60;;
21979;SDS011;11154;48.558;9.234;2022-08-03T08:40:57;5.68;;;1.80;;
21979;SDS011;11154;48.558;9.234;2022-08-03T08:43:00;1.80;;;1.58;;
21979;SDS011;11154;48.558;9.234;2022-08-03T08:45:02;2.13;;;1.52;;
21979;SDS011;11154;48.558;9.234;2022-08-03T08:47:05;2.45;;;1.83;;
21979;SDS011;11154;48.558;9.234;2022-08-03T08:49:08;2.13;;;1.92;;
21979;SDS011;11154;48.558;9.234;2022-08-03T08:51:11;2.63;;;2.42;;
21979;SDS011;11154;48.558;9.234;2022-08-03T08:53:14;2.40;;;2.00;;
21979;SDS011;11154;48.558;9.234;2022-08-03T08:55:18;1.30;;;1.20;;
21979;SDS011;11154;48.558;9.234;2022-08-03T08:57:21;1.55;;;1.45;;
21979;SDS011;11154;48.558;9.234;2022-08-03T08:59:27;2.72;;;1.50;;
21979;SDS011;11154;48.558;9.234;2022-08-03T09:01:32;2.08;;;1.50;;
21979;SDS011;11154;48.558;9.234;2022-08-03T09:03:34;2.90;;;1.50;;
21979;SDS011;11154;48.558;9.234;2022-08-03T09:05:35;2.30;;;1.42;;
21979;SDS011;11154;48.558;9.234;2022-08-03T09:07:38;2.25;;;1.42;;
21979;SDS011;11154;48.558;9.234;2022-08-03T09:09:41;4.40;;;1.58;;
21979;SDS011;11154;48.558;9.234;2022-08-03T09:11:43;1.75;;;1.42;;
21979;SDS011;11154;48.558;9.234;2022-08-03T09:13:45;1.90;;;1.40;;
21979;SDS011;11154;48.558;9.234;2022-08-03T09:15:47;2.08;;;1.60;;
21979;SDS011;11154;48.558;9.234;2022-08-03T09:17:50;2.05;;;1.25;;
21979;SDS011;11154;48.558;9.234;2022-08-03T09:20:02;1.98;;;1.40;;
21979;SDS011;11154;48.558;9.234;2022-08-03T09:22:08;1.48;;;1.35;;
21979;SDS011;11154;48.558;9.234;2022-08-03T09:24:12;2.78;;;1.60;;
21979;SDS011;11154;48.558;9.234;2022-08-03T09:26:23;1.30;;;1.20;;
21979;SDS011;11154;48.558;9.234;2022-08-03T09:28:26;3.10;;;1.23;;
21979;SDS011;11154;48.558;9.234;2022-08-03T09:30:34;3.15;;;1.67;;
21979;SDS011;11154;48.558;9.234;2022-08-03T09:32:37;2.10;;;1.50;;
21979;SDS011;11154;48.558;9.234;2022-08-03T09:34:38;1.52;;;1.38;;
21979;SDS011;11154;48.558;9.234;2022-08-03T09:36:40;1.70;;;1.60;;
21979;SDS011;11154;48.558;9.234;2022-08-03T09:38:43;2.83;;;1.45;;
21979;SDS011;11154;48.558;9.234;2022-08-03T09:41:03;3.60;;;2.00;;
21979;SDS011;11154;48.558;9.234;2022-08-03T09:43:19;2.45;;;1.77;;
21979;SDS011;11154;48.558;9.234;2022-08-03T09:45:24;1.88;;;1.67;;
21979;SDS011;11154;48.558;9.234;2022-08-03T09:47:27;1.77;;;1.50;;
21979;SDS011;11154;48.558;9.234;2022-08-03T09:49:30;1.85;;;1.65;;
21979;SDS011;11154;48.558;9.234;2022-08-03T09:51:32;1.95;;;1.60;;
21979;SDS011;11154;48.558;9.234;2022-08-03T09:53:40;2.08;;;1.60;;
21979;SDS011;11154;48.558;9.234;2022-08-03T09:55:49;2.75;;;1.40;;
21979;SDS011;11154;48.558;9.234;2022-08-03T09:57:51;1.60;;;1.50;;
21979;SDS011;11154;48.558;9.234;2022-08-03T10:00:07;1.85;;;1.30;;
21979;SDS011;11154;48.558;9.234;2022-08-03T10:02:18;1.60;;;1.50;;
21979;SDS011;11154;48.558;9.234;2022-08-03T10:04:22;2.65;;;1.40;;
21979;SDS011;11154;48.558;9.234;2022-08-03T10:06:24;2.38;;;1.55;;
21979;SDS011;11154;48.558;9.234;2022-08-03T10:08:26;2.55;;;1.48;;
21979;SDS011;11154;48.558;9.234;2022-08-03T10:10:28;2.20;;;1.42;;
21979;SDS011;11154;48.558;9.234;2022-08-03T10:12:43;1.58;;;1.48;;
21979;SDS011;11154;48.558;9.234;2022-08-03T10:14:47;2.80;;;1.60;;
21979;SDS011;11154;48.558;9.234;2022-08-03T10:16:50;2.80;;;1.20;;
21979;SDS011;11154;48.558;9.234;2022-08-03T10:18:52;1.70;;;1.20;;
21979;SDS011;11154;48.558;9.234;2022-08-03T10:20:57;6.68;;;2.22;;
21979;SDS011;11154;48.558;9.234;2022-08-03T10:23:03;2.25;;;1.30;;
21979;SDS011;11154;48.558;9.234;2022-08-03T10:25:06;1.23;;;1.13;;
21979;SDS011;11154;48.558;9.234;2022-08-03T10:27:10;3.80;;;1.40;;
21979;SDS011;11154;48.558;9.234;2022-08-03T10:29:17;1.40;;;1.30;;
21979;SDS011;11154;48.558;9.234;2022-08-03T10:33:27;2.88;;;1.20;;
21979;SDS011;11154;48.558;9.234;2022-08-03T10:35:34;1.70;;;1.20;;
21979;SDS011;11154;48.558;9.234;2022-08-03T10:37:41;1.38;;;1.13;;
21979;SDS011;11154;48.558;9.234;2022-08-03T10:39:44;1.70;;;1.35;;
21979;SDS011;11154;48.558;9.234;2022-08-03T10:41:53;2.42;;;1.35;;
21979;SDS011;11154;48.558;9.234;2022-08-03T10:43:58;3.92;;;1.40;;
21979;SDS011;11154;48.558;9.234;2022-08-03T10:46:04;1.33;;;1.23;;
21979;SDS011;11154;48.558;9.234;2022-08-03T10:48:08;2.85;;;1.30;;
21979;SDS011;11154;48.558;9.234;2022-08-03T10:50:11;1.48;;;1.13;;
21979;SDS011;11154;48.558;9.234;2022-08-03T10:52:14;4.05;;;1.15;;
21979;SDS011;11154;48.558;9.234;2022-08-03T10:57:02;1.50;;;1.40;;
21979;SDS011;11154;48.558;9.234;2022-08-03T11:01:58;1.98;;;1.20;;
21979;SDS011;11154;48.558;9.234;2022-08-03T11:04:16;2.70;;;1.45;;
21979;SDS011;11154;48.558;9.234;2022-08-03T11:06:21;1.30;;;1.20;;
21979;SDS011;11154;48.558;9.234;2022-08-03T11:08:25;3.15;;;1.20;;
21979;SDS011;11154;48.558;9.234;2022-08-03T11:10:31;2.80;;;1.27;;
21979;SDS011;11154;48.558;9.234;2022-08-03T11:12:33;1.13;;;1.02;;
21979;SDS011;11154;48.558;9.234;2022-08-03T11:14:44;1.05;;;0.98;;
21979;SDS011;11154;48.558;9.234;2022-08-03T11:16:47;3.42;;;1.23;;
21979;SDS011;11154;48.558;9.234;2022-08-03T11:18:55;1.27;;;1.10;;
21979;SDS011;11154;48.558;9.234;2022-08-03T11:20:59;1.58;;;1.15;;
21979;SDS011;11154;48.558;9.234;2022-08-03T11:23:02;2.28;;;1.15;;
21979;SDS011;11154;48.558;9.234;2022-08-03T11:25:06;2.92;;;1.27;;
21979;SDS011;11154;48.558;9.234;2022-08-03T11:27:17;2.42;;;1.23;;
21979;SDS011;11154;48.558;9.234;2022-08-03T11:29:26;1.77;;;1.30;;
21979;SDS011;11154;48.558;9.234;2022-08-03T11:31:42;1.52;;;1.15;;
21979;SDS011;11154;48.558;9.234;2022-08-03T11:34:02;3.63;;;1.42;;
21979;SDS011;11154;48.558;9.234;2022-08-03T11:36:04;3.10;;;1.50;;
21979;SDS011;11154;48.558;9.234;2022-08-03T11:38:09;2.75;;;1.60;;
21979;SDS011;11154;48.558;9.234;2022-08-03T11:40:16;1.50;;;1.23;;
21979;SDS011;11154;48.558;9.234;2022-08-03T11:42:37;1.50;;;1.40;;
21979;SDS011;11154;48.558;9.234;2022-08-03T11:44:39;1.80;;;1.42;;
21979;SDS011;11154;48.558;9.234;2022-08-03T11:46:41;3.47;;;1.45;;
21979;SDS011;11154;48.558;9.234;2022-08-03T11:48:44;2.55;;;1.40;;
21979;SDS011;11154;48.558;9.234;2022-08-03T11:50:47;1.70;;;1.60;;
21979;SDS011;11154;48.558;9.234;2022-08-03T11:52:49;1.83;;;1.63;;
21979;SDS011;11154;48.558;9.234;2022-08-03T11:54:53;1.58;;;1.33;;
21979;SDS011;11154;48.558;9.234;2022-08-03T11:56:55;2.42;;;1.40;;
21979;SDS011;11154;48.558;9.234;2022-08-03T11:58:57;1.50;;;1.40;;
21979;SDS011;11154;48.558;9.234;2022-08-03T12:01:02;1.63;;;1.40;;
21979;SDS011;11154;48.558;9.234;2022-08-03T12:03:05;3.28;;;1.27;;
21979;SDS011;11154;48.558;9.234;2022-08-03T12:05:08;1.42;;;1.30;;
21979;SDS011;11154;48.558;9.234;2022-08-03T12:07:09;2.17;;;1.15;;
21979;SDS011;11154;48.558;9.234;2022-08-03T12:09:14;1.80;;;1.45;;
21979;SDS011;11154;48.558;9.234;2022-08-03T12:11:17;2.20;;;1.33;;
21979;SDS011;11154;48.558;9.234;2022-08-03T12:13:19;2.92;;;1.63;;
21979;SDS011;11154;48.558;9.234;2022-08-03T12:15:25;1.45;;;1.35;;
21979;SDS011;11154;48.558;9.234;2022-08-03T12:17:31;2.45;;;1.20;;
21979;SDS011;11154;48.558;9.234;2022-08-03T12:19:40;2.35;;;1.25;;
21979;SDS011;11154;48.558;9.234;2022-08-03T12:21:44;2.67;;;1.30;;
21979;SDS011;11154;48.558;9.234;2022-08-03T12:23:47;2.85;;;1.25;;
21979;SDS011;11154;48.558;9.234;2022-08-03T12:25:48;1.13;;;1.05;;
21979;SDS011;11154;48.558;9.234;2022-08-03T12:27:52;1.70;;;1.38;;
21979;SDS011;11154;48.558;9.234;2022-08-03T12:29:54;1.95;;;1.40;;
21979;SDS011;11154;48.558;9.234;2022-08-03T12:31:57;1.35;;;1.23;;
21979;SDS011;11154;48.558;9.234;2022-08-03T12:33:59;2.90;;;1.80;;
21979;SDS011;11154;48.558;9.234;2022-08-03T12:36:04;2.60;;;1.30;;